createdAt,value
2019-05-28T03:51:33.790Z,16.93
2019-05-28T03:54:05.128Z,16.86
2019-05-28T03:56:36.239Z,16.65
2019-05-28T03:59:07.500Z,16.41
2019-05-28T04:01:38.631Z,16.30
2019-05-28T04:04:10.741Z,16.28
2019-05-28T04:06:43.076Z,16.37
2019-05-28T04:09:14.259Z,16.42
2019-05-28T04:11:45.491Z,16.33
2019-05-28T04:14:16.604Z,16.47
2019-05-28T04:16:47.822Z,16.47
2019-05-28T04:19:18.950Z,16.51
2019-05-28T04:21:50.209Z,16.49
2019-05-28T04:24:21.329Z,16.35
2019-05-28T04:26:52.697Z,16.30
2019-05-28T04:29:23.884Z,16.50
2019-05-28T04:31:58.944Z,16.56
2019-05-28T04:34:37.144Z,16.59
2019-05-28T04:37:17.420Z,16.68
2019-05-28T04:39:57.737Z,16.81
2019-05-28T04:42:33.988Z,16.86
2019-05-28T04:45:12.347Z,16.95
2019-05-28T04:47:46.790Z,17.00
2019-05-28T04:50:21.616Z,17.05
2019-05-28T04:52:56.411Z,17.12
2019-05-28T04:55:30.963Z,17.25
2019-05-28T04:58:06.402Z,17.30
2019-05-28T05:00:41.443Z,17.34
2019-05-28T05:03:17.573Z,17.36
2019-05-28T05:05:50.260Z,17.45
2019-05-28T05:08:21.632Z,17.51
2019-05-28T05:10:53.611Z,17.57
2019-05-28T05:13:25.051Z,17.59
2019-05-28T05:15:56.301Z,17.62
2019-05-28T05:18:27.687Z,17.58
2019-05-28T05:20:58.859Z,17.62
2019-05-28T05:23:30.238Z,17.66
2019-05-28T05:26:01.617Z,17.63
2019-05-28T05:28:33.978Z,17.73
2019-05-28T05:31:06.715Z,17.82
2019-05-28T05:33:38.060Z,17.87
2019-05-28T05:36:09.795Z,17.94
2019-05-28T05:38:43.968Z,17.72
2019-05-28T05:41:15.129Z,17.71
2019-05-28T05:43:46.286Z,17.69
2019-05-28T05:46:18.479Z,17.77
2019-05-28T05:48:50.745Z,17.94
2019-05-28T05:51:22.018Z,18.10
2019-05-28T05:53:53.326Z,18.32
2019-05-28T05:56:24.599Z,18.52
2019-05-28T05:58:55.716Z,18.71
2019-05-28T06:01:27.173Z,18.87
2019-05-28T06:03:58.391Z,19.12
2019-05-28T06:06:29.567Z,19.24
2019-05-28T06:09:00.834Z,19.44
2019-05-28T06:11:33.094Z,19.59
2019-05-28T06:14:04.545Z,19.75
2019-05-28T06:16:35.715Z,19.74
2019-05-28T06:19:06.905Z,19.77
2019-05-28T06:21:38.158Z,19.75
2019-05-28T06:24:09.411Z,19.82
2019-05-28T06:26:40.548Z,19.79
2019-05-28T06:29:11.657Z,19.70
2019-05-28T06:31:42.808Z,19.83
2019-05-28T06:34:14.013Z,19.89
2019-05-28T06:36:45.189Z,19.91
2019-05-28T06:39:17.427Z,19.91
2019-05-28T06:41:48.610Z,19.88
2019-05-28T06:44:19.756Z,19.95
2019-05-28T06:46:50.874Z,19.98
2019-05-28T06:49:22.006Z,19.98
2019-05-28T06:51:53.120Z,19.89
2019-05-28T06:54:24.506Z,19.82
2019-05-28T06:56:55.712Z,19.78
2019-05-28T06:59:26.872Z,19.84
2019-05-28T07:01:58.197Z,19.95
2019-05-28T07:04:32.902Z,20.14
2019-05-28T07:07:02.450Z,20.14
2019-05-28T07:09:34.648Z,20.06
2019-05-28T07:12:05.974Z,20.14
2019-05-28T07:14:37.212Z,20.12
2019-05-28T07:17:08.323Z,20.08
2019-05-28T07:19:39.456Z,20.01
2019-05-28T07:22:10.554Z,19.99
2019-05-28T07:24:42.683Z,20.09
2019-05-28T07:27:14.074Z,20.01
2019-05-28T07:29:45.269Z,19.59
2019-05-28T07:32:16.477Z,19.22
2019-05-28T07:34:47.709Z,18.71
2019-05-28T07:37:18.933Z,18.54
2019-05-28T07:39:50.111Z,18.55
2019-05-28T07:42:32.300Z,18.74
2019-05-28T07:44:54.107Z,18.67
2019-05-28T07:47:25.542Z,18.44
2019-05-28T07:49:57.648Z,18.26
2019-05-28T07:52:28.789Z,18.04
2019-05-28T07:55:00.933Z,17.93
2019-05-28T07:57:32.076Z,17.76
2019-05-28T08:00:05.671Z,17.72
2019-05-28T08:02:37.702Z,17.63
2019-05-28T08:05:10.112Z,17.59
2019-05-28T08:07:41.344Z,17.50
2019-05-28T08:10:12.625Z,17.36
2019-05-28T08:12:43.746Z,17.38
2019-05-28T08:15:14.979Z,17.29
2019-05-28T08:17:46.265Z,17.32
2019-05-28T08:20:18.632Z,17.40
2019-05-28T08:22:50.808Z,17.47
2019-05-28T08:25:41.525Z,17.56
2019-05-28T08:27:54.766Z,17.42
2019-05-28T08:30:26.111Z,17.26
2019-05-28T08:32:57.651Z,17.16
2019-05-28T08:35:28.992Z,17.27
2019-05-28T08:38:00.233Z,17.38
2019-05-28T08:40:31.647Z,17.47
2019-05-28T08:43:02.758Z,17.51
2019-05-28T08:45:33.860Z,17.41
2019-05-28T08:48:05.120Z,17.49
2019-05-28T08:50:36.340Z,17.42
2019-05-28T08:53:07.484Z,17.56
2019-05-28T08:55:38.664Z,17.70
2019-05-28T08:58:09.835Z,17.89
2019-05-28T09:00:42.859Z,18.04
2019-05-28T09:03:14.100Z,18.05
2019-05-28T09:05:45.226Z,18.40
2019-05-28T09:08:16.453Z,18.76
2019-05-28T09:10:47.549Z,18.83
2019-05-28T09:13:18.708Z,18.85
2019-05-28T09:15:49.938Z,19.03
2019-05-28T09:18:21.078Z,19.14
2019-05-28T09:20:52.805Z,19.14
2019-05-28T09:23:24.880Z,19.17
2019-05-28T09:25:57.225Z,19.09
2019-05-28T09:28:30.894Z,19.14
2019-05-28T09:31:01.164Z,18.88
2019-05-28T09:33:32.262Z,18.76
2019-05-28T09:36:08.479Z,18.76
2019-05-28T09:38:36.246Z,18.53
2019-05-28T09:41:08.512Z,18.66
2019-05-28T09:43:39.634Z,18.77
2019-05-28T09:46:10.978Z,18.89
2019-05-28T09:48:42.058Z,18.59
2019-05-28T09:51:13.279Z,18.77
2019-05-28T09:53:44.420Z,18.56
2019-05-28T09:56:18.639Z,18.17
2019-05-28T09:58:51.279Z,18.37
2019-05-28T10:01:22.808Z,18.58
2019-05-28T10:03:53.939Z,18.49
2019-05-28T10:06:36.659Z,18.11
2019-05-28T10:08:58.026Z,18.22
2019-05-28T10:11:29.178Z,18.09
2019-05-28T10:14:00.413Z,18.04
2019-05-28T10:16:31.539Z,18.17
2019-05-28T10:19:02.705Z,18.27
2019-05-28T10:21:33.782Z,18.16
2019-05-28T10:24:05.035Z,18.20
2019-05-28T10:26:36.347Z,18.17
2019-05-28T10:29:07.407Z,18.31
2019-05-28T10:31:38.729Z,18.22
2019-05-28T10:34:09.851Z,18.31
2019-05-28T10:36:41.052Z,18.52
2019-05-28T10:39:12.175Z,18.62
2019-05-28T10:41:43.323Z,18.61
2019-05-28T10:44:14.469Z,18.37
2019-05-28T10:46:47.000Z,18.55
2019-05-28T10:49:18.140Z,18.63
2019-05-28T10:51:49.266Z,18.63
2019-05-28T10:54:20.410Z,18.76
2019-05-28T10:56:52.387Z,18.95
2019-05-28T10:59:23.531Z,18.86
2019-05-28T11:01:54.674Z,18.69
2019-05-28T11:04:25.878Z,18.77
2019-05-28T11:06:57.071Z,18.80
2019-05-28T11:09:28.210Z,18.72
2019-05-28T11:11:59.380Z,18.73
2019-05-28T11:14:30.520Z,18.44
2019-05-28T11:17:01.627Z,18.51
2019-05-28T11:19:32.841Z,18.77
2019-05-28T11:22:03.988Z,18.81
2019-05-28T11:24:35.212Z,18.99
2019-05-28T11:27:06.629Z,18.98
2019-05-28T11:29:37.958Z,18.98
2019-05-28T11:32:09.227Z,18.92
2019-05-28T11:34:40.513Z,19.26
2019-05-28T11:37:11.638Z,19.04
2019-05-28T11:39:42.956Z,19.05
2019-05-28T11:42:14.043Z,19.22
2019-05-28T11:44:45.212Z,19.31
2019-05-28T11:47:16.446Z,19.13
2019-05-28T11:49:47.584Z,18.81
2019-05-28T11:52:18.701Z,18.56
2019-05-28T11:54:49.860Z,18.63
2019-05-28T11:57:21.294Z,18.55
2019-05-28T11:59:55.904Z,18.64
2019-05-28T12:02:28.128Z,18.47
2019-05-28T12:05:03.872Z,18.67
2019-05-28T12:07:35.030Z,18.69
2019-05-28T12:10:09.927Z,18.54
2019-05-28T12:12:41.121Z,18.56
2019-05-28T12:15:14.395Z,18.62
2019-05-28T12:17:46.001Z,18.49
2019-05-28T12:20:19.496Z,18.62
2019-05-28T12:23:08.871Z,18.24
2019-05-28T12:25:24.656Z,18.29
2019-05-28T12:27:55.819Z,18.71
2019-05-28T12:30:28.847Z,18.65
2019-05-28T12:32:59.990Z,18.52
2019-05-28T12:35:31.231Z,18.45
2019-05-28T12:38:02.359Z,18.43
2019-05-28T12:40:47.203Z,18.36
2019-05-28T12:43:06.253Z,18.06
2019-05-28T12:45:37.437Z,18.37
2019-05-28T12:48:12.674Z,18.70
2019-05-28T12:50:41.497Z,18.64
2019-05-28T12:56:17.684Z,18.88
2019-05-28T13:02:19.409Z,18.63
2019-05-28T13:04:50.546Z,18.67
2019-05-28T13:07:21.697Z,18.71
2019-05-28T13:09:52.814Z,18.64
2019-05-28T13:12:24.032Z,18.68
2019-05-28T13:14:55.217Z,18.84
2019-05-28T13:17:26.313Z,19.20
2019-05-28T13:19:57.521Z,19.17
2019-05-28T13:22:34.339Z,19.06
2019-05-28T13:25:07.323Z,19.05
2019-05-28T13:30:43.169Z,19.35
2019-05-28T13:33:14.289Z,18.70
2019-05-28T13:35:45.378Z,18.59
2019-05-28T13:38:26.946Z,18.24
2019-05-28T13:40:50.752Z,18.41
2019-05-28T13:43:21.962Z,18.08
2019-05-28T13:45:57.275Z,18.45
2019-05-28T13:48:28.636Z,18.42
2019-05-28T13:50:59.995Z,18.18
2019-05-28T13:53:32.267Z,18.24
2019-05-28T13:56:03.572Z,17.92
2019-05-28T13:58:34.804Z,17.78
2019-05-28T14:01:05.996Z,17.87
2019-05-28T14:03:37.128Z,18.04
2019-05-28T14:06:08.648Z,17.62
2019-05-28T14:08:46.787Z,17.53
2019-05-28T14:11:12.671Z,17.44
2019-05-28T14:13:44.247Z,17.75
2019-05-28T14:16:15.674Z,17.86
2019-05-28T14:18:47.006Z,17.84
2019-05-28T14:21:18.136Z,17.78
2019-05-28T14:23:49.257Z,17.54
2019-05-28T14:26:20.361Z,17.51
2019-05-28T14:28:53.853Z,17.32
2019-05-28T14:31:24.259Z,17.18
2019-05-28T14:33:55.357Z,17.27
2019-05-28T14:36:26.508Z,17.36
2019-05-28T14:39:03.298Z,17.29
2019-05-28T14:41:30.654Z,17.37
2019-05-28T14:44:01.881Z,17.41
2019-05-28T14:46:33.147Z,17.41
2019-05-28T14:49:07.651Z,17.07
2019-05-28T14:51:37.786Z,16.93
2019-05-28T14:54:09.437Z,16.73
2019-05-28T14:56:42.118Z,16.71
2019-05-28T14:59:13.261Z,16.96
2019-05-28T15:01:44.379Z,17.03
2019-05-28T15:04:15.698Z,17.06
2019-05-28T15:06:46.873Z,16.94
2019-05-28T15:09:21.327Z,16.68
2019-05-28T15:11:50.927Z,16.77
2019-05-28T15:14:22.363Z,16.67
2019-05-28T15:16:54.411Z,16.57
2019-05-28T15:19:25.530Z,16.64
2019-05-28T15:21:56.720Z,16.68
2019-05-28T15:24:27.994Z,16.66
2019-05-28T15:27:00.438Z,16.44
2019-05-28T15:29:31.625Z,16.43
2019-05-28T15:32:02.833Z,16.53
2019-05-28T15:34:33.981Z,16.52
2019-05-28T15:37:05.456Z,16.43
2019-05-28T15:43:05.855Z,16.17
2019-05-28T15:45:27.803Z,16.25
2019-05-28T15:48:00.140Z,16.22
2019-05-28T15:50:31.450Z,16.24
2019-05-28T15:53:03.052Z,16.12
2019-05-28T15:55:34.292Z,16.04
2019-05-28T15:58:07.641Z,16.03
2019-05-28T16:00:39.533Z,16.17
2019-05-28T16:03:12.812Z,16.08
2019-05-28T16:05:44.996Z,16.10
2019-05-28T16:08:16.219Z,15.90
2019-05-28T16:10:47.457Z,15.88
2019-05-28T16:13:18.612Z,15.84
2019-05-28T16:15:49.865Z,15.74
2019-05-28T16:18:21.002Z,15.84
2019-05-28T16:20:52.166Z,15.70
2019-05-28T16:23:24.160Z,15.65
2019-05-28T16:25:57.269Z,15.52
2019-05-28T16:28:30.140Z,15.56
2019-05-28T16:31:12.302Z,15.42
2019-05-28T16:33:42.740Z,15.56
2019-05-28T16:36:18.640Z,15.36
2019-05-28T16:38:52.891Z,15.31
2019-05-28T16:41:27.176Z,15.28
2019-05-28T16:44:02.293Z,15.23
2019-05-28T16:46:36.247Z,15.09
2019-05-28T16:49:11.547Z,14.89
2019-05-28T16:51:46.560Z,14.62
2019-05-28T16:54:21.515Z,14.66
2019-05-28T16:56:55.287Z,14.57
2019-05-28T16:59:28.694Z,14.52
2019-05-28T17:02:01.425Z,14.36
2019-05-28T17:04:33.057Z,14.27
2019-05-28T17:07:04.614Z,14.26
2019-05-28T17:09:36.046Z,14.12
2019-05-28T17:12:08.634Z,14.02
2019-05-28T17:14:40.698Z,14.02
2019-05-28T17:17:12.100Z,14.01
2019-05-28T17:19:44.871Z,14.00
2019-05-28T17:22:16.264Z,13.92
2019-05-28T17:24:49.101Z,13.99
2019-05-28T17:27:20.309Z,13.92
2019-05-28T17:29:52.259Z,13.88
2019-05-28T17:32:24.094Z,13.84
2019-05-28T17:35:01.136Z,13.80
2019-05-28T17:37:34.101Z,13.84
2019-05-28T17:40:08.592Z,13.86
2019-05-28T17:42:41.462Z,13.73
2019-05-28T17:45:14.326Z,13.72
2019-05-28T17:47:47.405Z,13.79
2019-05-28T17:50:19.024Z,13.71
2019-05-28T17:52:51.830Z,13.62
2019-05-28T17:55:23.313Z,13.66
2019-05-28T17:57:54.854Z,13.57
2019-05-28T18:00:26.503Z,13.53
2019-05-28T18:02:58.529Z,13.62
2019-05-28T18:05:29.692Z,13.66
2019-05-28T18:08:01.444Z,13.56
2019-05-28T18:10:32.960Z,13.51
2019-05-28T18:13:04.162Z,13.55
2019-05-28T18:15:35.464Z,13.48
2019-05-28T18:18:06.692Z,13.50
2019-05-28T18:20:38.809Z,13.45
2019-05-28T18:23:09.947Z,13.37
2019-05-28T18:25:41.282Z,13.33
2019-05-28T18:28:12.486Z,13.22
2019-05-28T18:30:43.601Z,13.22
2019-05-28T18:33:14.700Z,13.23
2019-05-28T18:35:45.885Z,13.21
2019-05-28T18:38:17.079Z,13.33
2019-05-28T18:40:48.334Z,13.33
2019-05-28T18:43:20.552Z,13.26
2019-05-28T18:45:51.723Z,13.29
2019-05-28T18:48:22.854Z,13.20
2019-05-28T18:50:54.117Z,13.22
2019-05-28T18:53:26.312Z,13.15
2019-05-28T18:55:57.685Z,13.14
2019-05-28T18:58:29.985Z,13.14
2019-05-28T19:01:01.819Z,13.10
2019-05-28T19:03:33.102Z,13.05
2019-05-28T19:06:04.347Z,13.01
2019-05-28T19:08:35.581Z,12.95
2019-05-28T19:11:07.330Z,12.93
2019-05-28T19:13:38.505Z,12.89
2019-05-28T19:16:09.654Z,12.86
2019-05-28T19:18:41.775Z,12.87
2019-05-28T19:21:12.917Z,12.81
2019-05-28T19:23:44.095Z,12.81
2019-05-28T19:26:15.239Z,12.73
2019-05-28T19:28:46.465Z,12.73
2019-05-28T19:31:17.726Z,12.67
2019-05-28T19:33:48.985Z,12.63
2019-05-28T19:36:20.810Z,12.60
2019-05-28T19:38:53.146Z,12.55
2019-05-28T19:41:25.357Z,12.53
2019-05-28T19:43:56.487Z,12.53
2019-05-28T19:46:27.811Z,12.46
2019-05-28T19:48:59.960Z,12.47
2019-05-28T19:51:31.139Z,12.47
2019-05-28T19:54:02.532Z,12.47
2019-05-28T19:56:33.721Z,12.45
2019-05-28T19:59:04.950Z,12.48
2019-05-28T20:01:36.117Z,12.53
2019-05-28T20:04:07.286Z,12.61
2019-05-28T20:06:38.422Z,12.57
2019-05-28T20:09:09.614Z,12.49
2019-05-28T20:11:40.771Z,12.47
